Time;durP1;ratioP1;P1;durP2;ratioP2;P2;SDS_P1;SDS_P2;PMS_P1;PMS_P2;Temp;Humidity;BMP_temperature;BMP_pressure;BME280_temperature;BME280_humidity;BME280_pressure;Samples;Min_cycle;Max_cycle;Signal;HPM_P1;HPM_P2
2024/02/11 00:01:30;;;;;;;4.88;3.20;;;;;;;;;;5893387;28;20129;-79
2024/02/11 00:04:21;;;;;;;6.57;3.60;;;;;;;;;;5909730;28;20125;-79
2024/02/11 00:07:12;;;;;;;12.75;4.30;;;;;;;;;;5892357;28;20048;-79
2024/02/11 00:10:08;;;;;;;10.93;4.60;;;;;;;;;;5909722;28;20036;-79
2024/02/11 00:13:01;;;;;;;16.05;4.55;;;;;;;;;;5910324;28;20048;-79
2024/02/11 00:15:52;;;;;;;3.03;2.83;;;;;;;;;;5911176;28;20186;-79
2024/02/11 00:18:43;;;;;;;13.15;4.25;;;;;;;;;;5910613;28;20498;-79
2024/02/11 00:21:34;;;;;;;8.15;4.47;;;;;;;;;;5909675;28;20040;-79
2024/02/11 00:24:29;;;;;;;9.55;6.03;;;;;;;;;;5909359;28;20044;-79
2024/02/11 00:27:23;;;;;;;6.75;4.03;;;;;;;;;;5910797;28;22219;-79
2024/02/11 00:30:14;;;;;;;14.75;5.65;;;;;;;;;;5909100;28;20045;-79
2024/02/11 00:33:05;;;;;;;14.98;6.50;;;;;;;;;;5910486;28;20480;-79
2024/02/11 00:35:59;;;;;;;6.38;4.13;;;;;;;;;;5909930;28;20047;-79
2024/02/11 00:38:53;;;;;;;5.28;4.30;;;;;;;;;;5909554;28;20518;-79
2024/02/11 00:41:45;;;;;;;13.52;4.85;;;;;;;;;;5908838;28;20068;-79
2024/02/11 00:44:35;;;;;;;7.18;4.88;;;;;;;;;;5909085;28;20059;-79
2024/02/11 00:47:28;;;;;;;8.52;4.43;;;;;;;;;;5908839;28;20051;-79
2024/02/11 00:50:19;;;;;;;6.05;3.75;;;;;;;;;;5909111;28;20509;-79
2024/02/11 00:53:10;;;;;;;10.57;3.83;;;;;;;;;;5908593;28;20052;-79
2024/02/11 00:56:02;;;;;;;12.80;8.75;;;;;;;;;;5909654;28;20409;-79
2024/02/11 00:58:53;;;;;;;6.25;4.32;;;;;;;;;;5910291;28;20131;-79
2024/02/11 01:01:43;;;;;;;6.25;3.92;;;;;;;;;;5887002;28;20044;-79
2024/02/11 01:04:38;;;;;;;12.57;3.70;;;;;;;;;;5895142;28;20056;-79
2024/02/11 01:07:31;;;;;;;20.77;3.40;;;;;;;;;;5887048;28;20577;-79
2024/02/11 01:10:25;;;;;;;7.00;3.50;;;;;;;;;;5885097;28;20130;-79
2024/02/11 01:13:16;;;;;;;5.35;3.17;;;;;;;;;;5886599;28;20053;-79
2024/02/11 01:16:07;;;;;;;4.28;2.85;;;;;;;;;;5884980;28;20107;-79
2024/02/11 01:18:58;;;;;;;4.85;2.22;;;;;;;;;;5886675;28;20494;-79
2024/02/11 01:21:48;;;;;;;18.15;8.40;;;;;;;;;;5886300;28;20359;-79
2024/02/11 01:24:39;;;;;;;8.27;3.95;;;;;;;;;;5884761;28;20051;-79
2024/02/11 01:27:30;;;;;;;9.70;5.57;;;;;;;;;;5886184;28;20047;-79
2024/02/11 01:30:23;;;;;;;8.88;5.82;;;;;;;;;;5868240;28;20466;-79
2024/02/11 01:33:14;;;;;;;9.45;7.50;;;;;;;;;;5884612;28;20045;-79
2024/02/11 01:36:05;;;;;;;4.57;2.83;;;;;;;;;;5884381;28;20049;-79
2024/02/11 01:38:55;;;;;;;10.38;4.47;;;;;;;;;;5884848;28;20075;-79
2024/02/11 01:41:46;;;;;;;4.05;2.50;;;;;;;;;;5885931;28;20037;-79
2024/02/11 01:44:37;;;;;;;5.15;3.42;;;;;;;;;;5884197;28;20128;-79
2024/02/11 01:47:29;;;;;;;7.40;5.25;;;;;;;;;;5884027;28;20148;-79
2024/02/11 01:50:20;;;;;;;9.80;3.25;;;;;;;;;;5884278;28;20053;-79
2024/02/11 01:53:12;;;;;;;3.42;2.92;;;;;;;;;;5884310;28;20049;-78
2024/02/11 01:56:05;;;;;;;7.22;4.35;;;;;;;;;;5867580;28;20115;-79
2024/02/11 01:58:56;;;;;;;16.60;6.10;;;;;;;;;;5884430;28;20419;-78
2024/02/11 02:01:47;;;;;;;8.82;4.78;;;;;;;;;;5867377;28;20167;-79
2024/02/11 02:04:39;;;;;;;4.53;3.55;;;;;;;;;;5867145;28;20044;-79
2024/02/11 02:07:30;;;;;;;10.07;3.88;;;;;;;;;;5884177;28;20052;-79
2024/02/11 02:10:21;;;;;;;3.08;2.38;;;;;;;;;;5883857;28;20138;-79
2024/02/11 02:13:12;;;;;;;6.75;3.45;;;;;;;;;;5883939;28;20134;-79
2024/02/11 02:16:03;;;;;;;5.97;3.08;;;;;;;;;;5883809;28;20079;-79
2024/02/11 02:18:54;;;;;;;11.88;3.97;;;;;;;;;;5885598;28;20683;-79
2024/02/11 02:21:56;;;;;;;7.38;4.22;;;;;;;;;;5884916;28;20041;-78
2024/02/11 02:24:50;;;;;;;6.05;4.35;;;;;;;;;;5883641;28;20524;-79
2024/02/11 02:27:41;;;;;;;11.43;4.35;;;;;;;;;;5883788;28;20506;-79
2024/02/11 02:30:33;;;;;;;9.23;4.00;;;;;;;;;;5888308;28;20495;-79
2024/02/11 02:33:24;;;;;;;7.97;5.15;;;;;;;;;;5888403;28;20436;-79
2024/02/11 02:36:17;;;;;;;9.50;4.85;;;;;;;;;;5888164;28;20056;-79
2024/02/11 02:39:12;;;;;;;8.38;4.45;;;;;;;;;;5888088;28;20060;-78
2024/02/11 02:42:04;;;;;;;9.35;4.50;;;;;;;;;;5889589;28;20132;-78
2024/02/11 02:44:55;;;;;;;9.48;5.15;;;;;;;;;;5888502;28;20418;-78
2024/02/11 02:47:46;;;;;;;6.63;4.10;;;;;;;;;;5871511;28;20037;-78
2024/02/11 02:50:37;;;;;;;9.68;5.93;;;;;;;;;;5887844;28;20090;-78
2024/02/11 02:53:28;;;;;;;10.57;4.68;;;;;;;;;;5888099;28;20041;-78
2024/02/11 02:56:19;;;;;;;6.15;4.53;;;;;;;;;;5904045;28;20045;-78
2024/02/11 02:59:10;;;;;;;9.85;4.68;;;;;;;;;;5871164;28;20084;-78
2024/02/11 03:02:04;;;;;;;10.65;3.25;;;;;;;;;;5887455;28;20150;-78
2024/02/11 03:04:56;;;;;;;8.15;4.82;;;;;;;;;;5888185;28;20462;-78
2024/02/11 03:07:47;;;;;;;5.22;3.63;;;;;;;;;;5904025;28;20041;-78
2024/02/11 03:10:38;;;;;;;9.48;5.47;;;;;;;;;;5888937;28;20059;-78
2024/02/11 03:13:29;;;;;;;3.35;3.00;;;;;;;;;;5887471;28;20119;-78
2024/02/11 03:16:20;;;;;;;7.15;4.13;;;;;;;;;;5887738;28;20052;-78
2024/02/11 03:19:13;;;;;;;4.68;3.90;;;;;;;;;;5904176;28;20501;-78
2024/02/11 03:22:04;;;;;;;12.05;4.30;;;;;;;;;;5889302;28;20045;-78
2024/02/11 03:24:55;;;;;;;8.75;4.07;;;;;;;;;;5888305;28;20055;-78
2024/02/11 03:27:47;;;;;;;17.92;6.32;;;;;;;;;;5888804;28;20052;-79
2024/02/11 03:30:38;;;;;;;7.80;3.35;;;;;;;;;;5887006;28;20041;-79
2024/02/11 03:33:30;;;;;;;10.27;4.28;;;;;;;;;;5903713;28;20048;-78
2024/02/11 03:36:21;;;;;;;5.13;3.92;;;;;;;;;;5886871;28;20053;-78
2024/02/11 03:39:12;;;;;;;7.57;3.63;;;;;;;;;;5887172;28;20045;-78
2024/02/11 03:42:04;;;;;;;5.85;4.15;;;;;;;;;;5887010;28;20363;-78
2024/02/11 03:44:55;;;;;;;8.73;5.30;;;;;;;;;;5888544;28;20533;-78
2024/02/11 03:47:47;;;;;;;6.35;4.10;;;;;;;;;;5886642;28;20056;-78
2024/02/11 03:50:39;;;;;;;8.20;5.93;;;;;;;;;;5887993;28;20410;-78
2024/02/11 03:53:30;;;;;;;17.60;6.28;;;;;;;;;;5902878;28;20040;-79
2024/02/11 03:56:23;;;;;;;6.40;4.63;;;;;;;;;;5887641;28;20060;-78
2024/02/11 03:59:15;;;;;;;17.63;4.63;;;;;;;;;;5886653;28;20056;-78
2024/02/11 04:02:06;;;;;;;6.80;3.35;;;;;;;;;;5870113;28;20056;-78
2024/02/11 04:04:57;;;;;;;5.45;3.63;;;;;;;;;;5870306;28;20051;-78
2024/02/11 04:07:50;;;;;;;7.70;4.05;;;;;;;;;;5886231;28;20041;-78
2024/02/11 04:10:41;;;;;;;4.45;3.38;;;;;;;;;;5886369;28;20457;-78
2024/02/11 04:13:32;;;;;;;4.25;3.60;;;;;;;;;;5886356;28;20041;-78
2024/02/11 04:16:22;;;;;;;6.68;3.53;;;;;;;;;;5885904;28;20175;-78
2024/02/11 04:19:13;;;;;;;4.13;3.03;;;;;;;;;;5886290;28;20055;-78
2024/02/11 04:22:04;;;;;;;3.40;2.60;;;;;;;;;;5887416;28;20128;-78
2024/02/11 04:24:55;;;;;;;5.93;3.63;;;;;;;;;;5886580;28;20056;-78
2024/02/11 04:27:46;;;;;;;3.38;2.55;;;;;;;;;;5887235;28;20444;-78
2024/02/11 04:30:41;;;;;;;16.05;5.07;;;;;;;;;;5886934;28;20514;-78
2024/02/11 04:33:33;;;;;;;7.32;4.38;;;;;;;;;;5885461;28;20049;-78
2024/02/11 04:36:24;;;;;;;9.60;3.63;;;;;;;;;;5886908;28;20056;-78
2024/02/11 04:39:15;;;;;;;6.50;3.70;;;;;;;;;;5885732;28;20049;-78
2024/02/11 04:42:06;;;;;;;7.07;3.97;;;;;;;;;;5886797;28;20522;-78
2024/02/11 04:44:57;;;;;;;7.03;3.00;;;;;;;;;;5885962;28;20410;-78
2024/02/11 04:48:03;;;;;;;3.28;2.40;;;;;;;;;;5887039;28;20060;-78
2024/02/11 04:50:57;;;;;;;7.15;3.03;;;;;;;;;;5885309;28;20033;-78
2024/02/11 04:53:47;;;;;;;3.83;2.78;;;;;;;;;;5886992;28;20187;-78
2024/02/11 04:56:38;;;;;;;4.55;2.63;;;;;;;;;;5885888;28;20044;-79
2024/02/11 04:59:29;;;;;;;10.13;4.20;;;;;;;;;;5885784;28;20123;-79
2024/02/11 05:02:19;;;;;;;11.75;4.53;;;;;;;;;;5885822;28;20052;-79
2024/02/11 05:05:11;;;;;;;4.82;4.07;;;;;;;;;;5869136;28;20083;-79
2024/02/11 05:08:04;;;;;;;10.32;4.60;;;;;;;;;;5885675;28;20118;-79
2024/02/11 05:10:55;;;;;;;6.18;3.90;;;;;;;;;;5902424;28;20402;-79
2024/02/11 05:13:47;;;;;;;6.28;4.28;;;;;;;;;;5885552;28;20048;-78
2024/02/11 05:16:41;;;;;;;8.95;4.00;;;;;;;;;;5884990;28;20045;-78
2024/02/11 05:19:32;;;;;;;4.68;2.80;;;;;;;;;;5885048;28;20110;-78
2024/02/11 05:22:25;;;;;;;6.05;4.00;;;;;;;;;;5885240;28;20041;-78
2024/02/11 05:25:20;;;;;;;6.13;4.57;;;;;;;;;;5884415;28;20049;-78
2024/02/11 05:28:14;;;;;;;12.55;5.00;;;;;;;;;;5886077;28;20502;-78
2024/02/11 05:31:07;;;;;;;23.60;11.38;;;;;;;;;;5885879;28;20049;-78
2024/02/11 05:34:00;;;;;;;16.17;9.30;;;;;;;;;;5901492;28;20060;-78
2024/02/11 05:36:55;;;;;;;7.93;4.78;;;;;;;;;;5884737;28;20114;-78
2024/02/11 05:39:47;;;;;;;21.48;11.52;;;;;;;;;;5900439;28;20049;-78
2024/02/11 05:42:40;;;;;;;11.13;7.15;;;;;;;;;;5900325;28;20512;-78
2024/02/11 05:45:30;;;;;;;8.40;4.78;;;;;;;;;;5884288;28;20041;-78
2024/02/11 05:48:22;;;;;;;14.88;7.03;;;;;;;;;;5884400;28;20057;-78
2024/02/11 05:51:13;;;;;;;6.32;3.50;;;;;;;;;;5883819;28;20049;-79
2024/02/11 05:54:04;;;;;;;4.63;3.65;;;;;;;;;;5884094;28;20080;-78
2024/02/11 05:56:55;;;;;;;5.38;3.55;;;;;;;;;;5884297;28;20048;-78
2024/02/11 05:59:48;;;;;;;5.20;2.95;;;;;;;;;;5883901;28;20044;-78
2024/02/11 06:02:50;;;;;;;8.25;3.75;;;;;;;;;;5885099;28;20040;-78
2024/02/11 06:05:41;;;;;;;11.55;3.47;;;;;;;;;;5882934;28;20041;-78
2024/02/11 06:08:34;;;;;;;10.68;3.60;;;;;;;;;;5885331;28;20525;-78
2024/02/11 06:11:25;;;;;;;4.43;3.80;;;;;;;;;;5883547;28;20726;-78
2024/02/11 06:14:16;;;;;;;10.10;3.72;;;;;;;;;;5900444;28;20083;-78
2024/02/11 06:17:08;;;;;;;3.50;3.15;;;;;;;;;;5884989;28;20076;-78
2024/02/11 06:19:59;;;;;;;18.70;4.07;;;;;;;;;;5885637;28;20056;-78
2024/02/11 06:22:54;;;;;;;6.60;3.60;;;;;;;;;;5883895;28;20045;-78
2024/02/11 06:25:45;;;;;;;5.10;3.50;;;;;;;;;;5883690;28;20041;-78
2024/02/11 06:28:36;;;;;;;6.45;3.80;;;;;;;;;;5883626;28;20049;-78
2024/02/11 06:31:27;;;;;;;9.88;3.70;;;;;;;;;;5885039;28;20528;-78
2024/02/11 06:34:21;;;;;;;4.88;3.47;;;;;;;;;;5883604;28;20056;-78
2024/02/11 06:37:12;;;;;;;4.70;3.63;;;;;;;;;;5883685;28;20119;-78
2024/02/11 06:40:04;;;;;;;8.32;3.08;;;;;;;;;;5867019;28;20056;-78
2024/02/11 06:42:55;;;;;;;4.22;3.30;;;;;;;;;;5885552;28;20056;-78
2024/02/11 06:45:46;;;;;;;5.57;4.63;;;;;;;;;;5884749;28;20049;-78
2024/02/11 06:48:38;;;;;;;4.63;3.15;;;;;;;;;;5883677;28;20173;-78
2024/02/11 06:51:31;;;;;;;3.47;3.17;;;;;;;;;;5883428;28;20041;-78
2024/02/11 06:54:22;;;;;;;3.83;3.05;;;;;;;;;;5883536;28;20048;-78
2024/02/11 06:57:14;;;;;;;9.55;4.93;;;;;;;;;;5883411;28;20529;-78
2024/02/11 07:00:09;;;;;;;13.98;2.95;;;;;;;;;;5884521;28;20068;-78
2024/02/11 07:03:03;;;;;;;4.88;3.58;;;;;;;;;;5883723;28;20421;-78
2024/02/11 07:05:54;;;;;;;12.00;5.75;;;;;;;;;;5883445;28;20039;-78
2024/02/11 07:08:45;;;;;;;7.75;4.13;;;;;;;;;;5884698;28;20052;-78
2024/02/11 07:11:38;;;;;;;9.35;6.15;;;;;;;;;;5883187;28;20041;-78
2024/02/11 07:14:29;;;;;;;15.75;8.48;;;;;;;;;;5883440;28;20041;-78
2024/02/11 07:17:20;;;;;;;12.65;6.70;;;;;;;;;;5888158;28;20045;-79
2024/02/11 07:20:14;;;;;;;6.72;4.25;;;;;;;;;;5886935;28;20052;-79
2024/02/11 07:23:06;;;;;;;3.42;2.95;;;;;;;;;;5887262;28;20051;-79
2024/02/11 07:25:57;;;;;;;5.65;3.85;;;;;;;;;;5887659;28;20488;-79
2024/02/11 07:28:48;;;;;;;19.48;3.88;;;;;;;;;;5887045;28;20041;-79
2024/02/11 07:31:39;;;;;;;11.57;4.63;;;;;;;;;;5886888;28;20037;-79
2024/02/11 07:34:31;;;;;;;6.15;4.95;;;;;;;;;;5887058;28;20045;-79
2024/02/11 07:37:23;;;;;;;13.20;5.68;;;;;;;;;;5886974;28;20068;-78
2024/02/11 07:40:15;;;;;;;7.18;5.18;;;;;;;;;;5888446;28;20045;-78
2024/02/11 07:43:08;;;;;;;7.97;4.30;;;;;;;;;;5886547;28;20044;-79
2024/02/11 07:46:01;;;;;;;7.97;5.45;;;;;;;;;;5903714;28;20041;-79
2024/02/11 07:48:53;;;;;;;5.10;4.35;;;;;;;;;;5886723;28;20049;-79
2024/02/11 07:51:44;;;;;;;18.05;6.05;;;;;;;;;;5886564;28;20041;-79
2024/02/11 07:54:35;;;;;;;4.50;3.78;;;;;;;;;;5902965;28;20199;-79
2024/02/11 07:57:26;;;;;;;6.13;3.88;;;;;;;;;;5886381;28;20045;-78
2024/02/11 08:00:19;;;;;;;7.72;4.82;;;;;;;;;;5887885;28;20053;-79
2024/02/11 08:03:11;;;;;;;8.63;6.07;;;;;;;;;;5902572;28;20497;-79
2024/02/11 08:06:02;;;;;;;11.88;6.32;;;;;;;;;;5886464;28;20045;-79
2024/02/11 08:08:54;;;;;;;7.93;6.43;;;;;;;;;;5886728;28;20094;-79
2024/02/11 08:11:44;;;;;;;9.10;6.32;;;;;;;;;;5886403;28;20052;-79
2024/02/11 08:14:38;;;;;;;10.85;4.10;;;;;;;;;;5886173;28;20040;-79
2024/02/11 08:17:29;;;;;;;72.60;33.65;;;;;;;;;;5886221;28;20063;-79
2024/02/11 08:20:20;;;;;;;45.10;20.65;;;;;;;;;;5887463;28;20126;-79
2024/02/11 08:23:11;;;;;;;38.05;21.98;;;;;;;;;;5885995;28;20080;-79
2024/02/11 08:26:02;;;;;;;18.50;11.00;;;;;;;;;;5902186;28;20107;-79
2024/02/11 08:28:53;;;;;;;19.30;7.80;;;;;;;;;;5887291;28;20049;-79
2024/02/11 08:31:46;;;;;;;43.92;22.10;;;;;;;;;;5886014;28;20041;-79
2024/02/11 08:34:36;;;;;;;18.30;10.40;;;;;;;;;;5869606;28;20118;-79
2024/02/11 08:37:27;;;;;;;5.22;3.72;;;;;;;;;;5869152;28;20041;-79
2024/02/11 08:40:18;;;;;;;3.83;3.42;;;;;;;;;;5869086;28;20061;-79
2024/02/11 08:43:09;;;;;;;6.90;3.80;;;;;;;;;;5869139;28;20068;-79
2024/02/11 08:46:03;;;;;;;6.63;3.97;;;;;;;;;;5902123;28;20163;-79
2024/02/11 08:48:55;;;;;;;15.20;5.80;;;;;;;;;;5887315;28;20049;-79
2024/02/11 08:51:46;;;;;;;49.25;26.48;;;;;;;;;;5885618;28;20045;-79
2024/02/11 08:54:36;;;;;;;183.77;128.10;;;;;;;;;;5901778;28;20052;-79
2024/02/11 08:57:27;;;;;;;14.63;7.68;;;;;;;;;;5885213;28;20048;-79
2024/02/11 09:00:18;;;;;;;22.85;15.38;;;;;;;;;;5868867;28;20056;-79
2024/02/11 09:03:09;;;;;;;11.60;7.78;;;;;;;;;;5886266;28;20056;-79
2024/02/11 09:06:00;;;;;;;45.30;19.98;;;;;;;;;;5902150;28;20047;-79
2024/02/11 09:08:52;;;;;;;132.38;50.72;;;;;;;;;;5885498;28;20084;-79
2024/02/11 09:11:44;;;;;;;53.95;30.08;;;;;;;;;;5901798;28;20053;-79
2024/02/11 09:14:37;;;;;;;25.92;16.80;;;;;;;;;;5886382;28;20049;-79
2024/02/11 09:17:32;;;;;;;15.60;11.27;;;;;;;;;;5901485;28;20045;-79
2024/02/11 09:20:23;;;;;;;47.53;24.52;;;;;;;;;;5901383;28;20056;-79
2024/02/11 09:23:14;;;;;;;221.00;75.60;;;;;;;;;;5886338;28;20136;-79
2024/02/11 09:26:05;;;;;;;24.65;8.30;;;;;;;;;;5886223;28;20044;-79
2024/02/11 09:28:56;;;;;;;63.65;19.88;;;;;;;;;;5901426;28;20494;-79
2024/02/11 09:31:48;;;;;;;47.47;16.17;;;;;;;;;;5901229;28;20128;-79
2024/02/11 09:34:40;;;;;;;7.15;3.88;;;;;;;;;;5901001;28;20179;-79
2024/02/11 09:37:31;;;;;;;143.68;57.03;;;;;;;;;;5884405;28;20052;-79
2024/02/11 09:40:22;;;;;;;158.60;62.97;;;;;;;;;;5884925;28;20049;-79
2024/02/11 09:43:18;;;;;;;18.90;7.05;;;;;;;;;;5884710;28;20423;-79
2024/02/11 09:46:12;;;;;;;6.93;3.72;;;;;;;;;;5884607;28;20103;-79
2024/02/11 09:49:18;;;;;;;8.30;3.45;;;;;;;;;;5884942;28;20045;-79
2024/02/11 09:52:11;;;;;;;18.17;7.70;;;;;;;;;;5868608;28;20053;-79
2024/02/11 09:55:04;;;;;;;52.95;24.90;;;;;;;;;;5884352;28;20056;-79
2024/02/11 09:57:54;;;;;;;35.97;18.30;;;;;;;;;;5884620;28;20041;-79
2024/02/11 10:00:45;;;;;;;41.83;17.73;;;;;;;;;;5885939;28;20036;-79
2024/02/11 10:03:37;;;;;;;32.22;16.45;;;;;;;;;;5884037;28;20179;-79
2024/02/11 10:06:39;;;;;;;21.77;9.70;;;;;;;;;;5900603;28;20048;-79
2024/02/11 10:09:30;;;;;;;14.88;8.90;;;;;;;;;;5884627;28;20064;-79
2024/02/11 10:12:22;;;;;;;21.85;14.27;;;;;;;;;;5885512;28;20051;-79
2024/02/11 10:15:16;;;;;;;7.93;3.10;;;;;;;;;;5884288;28;20045;-79
2024/02/11 10:18:08;;;;;;;20.75;14.85;;;;;;;;;;5885182;28;20048;-79
2024/02/11 10:20:59;;;;;;;14.80;6.40;;;;;;;;;;5901305;28;20052;-79
2024/02/11 10:23:50;;;;;;;4.40;2.30;;;;;;;;;;5884148;28;20115;-79
2024/02/11 10:26:40;;;;;;;4.22;3.13;;;;;;;;;;5884147;28;20041;-79
2024/02/11 10:29:32;;;;;;;5.82;3.22;;;;;;;;;;5884134;28;20056;-79
2024/02/11 10:32:23;;;;;;;3.00;2.28;;;;;;;;;;5884294;28;20383;-79
2024/02/11 10:35:17;;;;;;;3.75;2.75;;;;;;;;;;5884550;28;20056;-79
2024/02/11 10:38:08;;;;;;;5.43;1.98;;;;;;;;;;5883784;28;20048;-79
2024/02/11 10:41:03;;;;;;;3.85;2.13;;;;;;;;;;5885457;28;20048;-79
2024/02/11 10:43:54;;;;;;;6.80;4.50;;;;;;;;;;5885433;28;20060;-79
2024/02/11 10:46:45;;;;;;;10.40;6.65;;;;;;;;;;5884366;28;20049;-79
2024/02/11 10:49:36;;;;;;;5.03;3.97;;;;;;;;;;5884039;28;20072;-79
2024/02/11 10:52:44;;;;;;;16.83;6.60;;;;;;;;;;5888810;28;20037;-79
2024/02/11 10:55:45;;;;;;;30.57;16.27;;;;;;;;;;5890152;28;20049;-78
2024/02/11 10:58:52;;;;;;;23.13;13.57;;;;;;;;;;5905159;28;20049;-78
2024/02/11 11:01:43;;;;;;;8.00;3.90;;;;;;;;;;5904486;28;20052;-78
2024/02/11 11:04:37;;;;;;;5.82;4.22;;;;;;;;;;5888426;28;20075;-78
2024/02/11 11:07:31;;;;;;;3.03;2.30;;;;;;;;;;5888245;28;20382;-78
2024/02/11 11:10:29;;;;;;;4.07;3.17;;;;;;;;;;5888597;28;20409;-78
2024/02/11 11:13:24;;;;;;;7.60;2.78;;;;;;;;;;5888432;28;20463;-78
2024/02/11 11:16:23;;;;;;;8.65;3.22;;;;;;;;;;5888243;28;20059;-78
2024/02/11 11:19:15;;;;;;;8.05;4.40;;;;;;;;;;5888375;28;20048;-78
2024/02/11 11:22:08;;;;;;;2.60;2.13;;;;;;;;;;5888130;28;20061;-78
2024/02/11 11:24:59;;;;;;;3.50;2.35;;;;;;;;;;5888641;28;20414;-77
2024/02/11 11:27:50;;;;;;;4.60;1.70;;;;;;;;;;5888035;28;20045;-77
2024/02/11 11:30:42;;;;;;;5.40;2.45;;;;;;;;;;5887108;28;20391;-77
2024/02/11 11:33:36;;;;;;;11.80;3.92;;;;;;;;;;5887335;28;20041;-78
2024/02/11 11:36:28;;;;;;;11.10;4.75;;;;;;;;;;5887524;28;20059;-78
2024/02/11 11:39:19;;;;;;;7.70;3.17;;;;;;;;;;5871318;28;20402;-78
2024/02/11 11:42:11;;;;;;;53.88;25.60;;;;;;;;;;5887051;28;20055;-78
2024/02/11 11:45:10;;;;;;;25.33;11.95;;;;;;;;;;5888180;28;20048;-78
2024/02/11 11:48:01;;;;;;;;;;;;;;;;;;5904137;28;20045;-78
2024/02/11 11:51:03;;;;;;;12.93;7.70;;;;;;;;;;5903662;28;19920;-78
2024/02/11 11:53:54;;;;;;;11.82;8.32;;;;;;;;;;5888874;28;20060;-78
2024/02/11 11:56:45;;;;;;;11.43;7.15;;;;;;;;;;5887072;28;20056;-78
2024/02/11 11:59:36;;;;;;;9.13;6.53;;;;;;;;;;5886789;28;20052;-78
2024/02/11 12:02:28;;;;;;;15.13;8.20;;;;;;;;;;5886928;28;20048;-77
2024/02/11 12:05:19;;;;;;;10.75;7.55;;;;;;;;;;5886707;28;20049;-78
2024/02/11 12:08:10;;;;;;;12.00;7.55;;;;;;;;;;5888204;28;20057;-78
2024/02/11 12:11:03;;;;;;;8.02;5.22;;;;;;;;;;5903584;28;20052;-77
2024/02/11 12:13:54;;;;;;;5.18;3.22;;;;;;;;;;5887066;28;20045;-77
2024/02/11 12:16:45;;;;;;;4.32;3.92;;;;;;;;;;5887850;28;20047;-78
2024/02/11 12:19:40;;;;;;;3.58;2.50;;;;;;;;;;5886274;28;20151;-78
2024/02/11 12:22:31;;;;;;;6.90;4.30;;;;;;;;;;5886107;28;20498;-78
2024/02/11 12:25:23;;;;;;;5.57;3.78;;;;;;;;;;5887287;28;20041;-78
2024/02/11 12:28:32;;;;;;;101.13;42.05;;;;;;;;;;5886062;28;20044;-78
2024/02/11 12:31:26;;;;;;;58.10;29.13;;;;;;;;;;5885723;28;20170;-78
2024/02/11 12:34:19;;;;;;;47.83;28.48;;;;;;;;;;5902991;28;20410;-78
2024/02/11 12:37:11;;;;;;;8.57;4.90;;;;;;;;;;5886617;28;20160;-78
2024/02/11 12:40:03;;;;;;;12.13;8.02;;;;;;;;;;5886152;28;20045;-78
2024/02/11 12:43:00;;;;;;;12.27;6.75;;;;;;;;;;5887854;28;20049;-78
2024/02/11 12:45:51;;;;;;;8.38;6.88;;;;;;;;;;5886452;28;20409;-78
2024/02/11 12:48:44;;;;;;;13.02;9.38;;;;;;;;;;5886211;28;20135;-78
2024/02/11 12:51:35;;;;;;;14.52;7.43;;;;;;;;;;5885898;28;20041;-78
2024/02/11 12:54:26;;;;;;;14.52;8.52;;;;;;;;;;5869489;28;20861;-84
2024/02/11 12:57:16;;;;;;;8.15;5.07;;;;;;;;;;5885472;28;20045;-84
2024/02/11 13:00:09;;;;;;;25.65;16.08;;;;;;;;;;5887066;28;20044;-85
2024/02/11 13:03:01;;;;;;;6.13;3.78;;;;;;;;;;5886114;28;20041;-85
2024/02/11 13:05:55;;;;;;;20.05;11.05;;;;;;;;;;5902356;28;20068;-84
2024/02/11 13:08:49;;;;;;;48.28;30.23;;;;;;;;;;5885458;28;20063;-85
2024/02/11 13:11:42;;;;;;;34.75;17.55;;;;;;;;;;5901376;28;20045;-85
2024/02/11 13:14:32;;;;;;;38.72;23.42;;;;;;;;;;5901608;28;20048;-85
2024/02/11 13:17:24;;;;;;;18.60;8.45;;;;;;;;;;5868621;28;20414;-85
2024/02/11 13:20:15;;;;;;;28.25;17.88;;;;;;;;;;5885428;28;20073;-84
2024/02/11 13:23:06;;;;;;;11.77;5.18;;;;;;;;;;5886517;28;20128;-83
2024/02/11 13:25:57;;;;;;;3.13;2.65;;;;;;;;;;5885915;28;20049;-85
2024/02/11 13:28:48;;;;;;;25.50;14.95;;;;;;;;;;5885104;28;20116;-85
2024/02/11 13:31:41;;;;;;;14.18;9.10;;;;;;;;;;5885202;28;20120;-85
2024/02/11 13:34:33;;;;;;;8.15;3.72;;;;;;;;;;5901686;28;20124;-85
2024/02/11 13:37:24;;;;;;;5.00;3.50;;;;;;;;;;5886971;28;20073;-85
2024/02/11 13:40:15;;;;;;;15.85;5.28;;;;;;;;;;5901590;28;20053;-85
2024/02/11 13:43:06;;;;;;;7.50;4.85;;;;;;;;;;5884762;28;20494;-83
2024/02/11 13:45:57;;;;;;;7.38;5.63;;;;;;;;;;5885471;28;20052;-85
2024/02/11 13:48:48;;;;;;;6.30;5.32;;;;;;;;;;5884913;28;20045;-85
2024/02/11 13:51:39;;;;;;;3.97;2.95;;;;;;;;;;5884847;28;20045;-85
2024/02/11 13:54:30;;;;;;;4.03;2.00;;;;;;;;;;5886351;28;20411;-85
2024/02/11 13:57:20;;;;;;;5.30;4.15;;;;;;;;;;5884977;28;20056;-85
2024/02/11 14:00:12;;;;;;;6.93;4.20;;;;;;;;;;5886553;28;20525;-84
2024/02/11 14:03:05;;;;;;;6.80;3.38;;;;;;;;;;5884725;28;20052;-84
2024/02/11 14:05:56;;;;;;;3.15;2.85;;;;;;;;;;5886323;28;20056;-85
2024/02/11 14:08:47;;;;;;;2.78;2.50;;;;;;;;;;5884960;28;20051;-84
2024/02/11 14:11:41;;;;;;;2.33;1.95;;;;;;;;;;5885659;28;20056;-85
2024/02/11 14:14:32;;;;;;;2.95;2.17;;;;;;;;;;5868141;28;20040;-85
2024/02/11 14:17:23;;;;;;;34.30;19.92;;;;;;;;;;5888083;28;20048;-84
2024/02/11 14:20:15;;;;;;;31.20;19.70;;;;;;;;;;5910920;28;20083;-84
2024/02/11 14:23:07;;;;;;;22.60;13.05;;;;;;;;;;5906144;28;20045;-84
2024/02/11 14:25:58;;;;;;;34.45;17.55;;;;;;;;;;5909412;28;20044;-84
2024/02/11 14:28:51;;;;;;;31.95;13.18;;;;;;;;;;5912051;28;20067;-84
2024/02/11 14:31:43;;;;;;;47.55;17.08;;;;;;;;;;5911404;28;20136;-84
2024/02/11 14:34:35;;;;;;;56.72;27.38;;;;;;;;;;5911349;28;20095;-84
2024/02/11 14:37:26;;;;;;;36.55;20.48;;;;;;;;;;5913246;28;20067;-85
2024/02/11 14:40:19;;;;;;;38.05;22.00;;;;;;;;;;5911601;28;20062;-85
2024/02/11 14:43:10;;;;;;;22.48;11.55;;;;;;;;;;5910878;28;20178;-85
2024/02/11 14:46:04;;;;;;;16.10;9.88;;;;;;;;;;5912778;28;20453;-85
2024/02/11 14:48:55;;;;;;;7.80;3.65;;;;;;;;;;5909780;28;20574;-85
2024/02/11 14:51:47;;;;;;;45.47;28.42;;;;;;;;;;5893674;28;20043;-85
2024/02/11 14:54:38;;;;;;;9.95;7.20;;;;;;;;;;5912235;28;20374;-85
2024/02/11 14:57:28;;;;;;;17.85;9.85;;;;;;;;;;5894641;28;20044;-86
2024/02/11 15:00:19;;;;;;;43.58;24.70;;;;;;;;;;5910484;28;20055;-86
2024/02/11 15:03:10;;;;;;;24.42;13.50;;;;;;;;;;5911475;28;20052;-85
2024/02/11 15:06:03;;;;;;;18.65;7.82;;;;;;;;;;5912245;28;20546;-86
2024/02/11 15:08:55;;;;;;;18.23;12.18;;;;;;;;;;5911365;28;20444;-86
2024/02/11 15:11:46;;;;;;;5.18;3.45;;;;;;;;;;5911592;28;20123;-86
2024/02/11 15:14:39;;;;;;;8.50;4.70;;;;;;;;;;5911630;28;20036;-86
2024/02/11 15:17:30;;;;;;;5.20;3.38;;;;;;;;;;5910971;28;20125;-86
2024/02/11 15:20:22;;;;;;;14.60;10.40;;;;;;;;;;5911783;28;20048;-86
2024/02/11 15:23:12;;;;;;;15.50;8.88;;;;;;;;;;5909604;28;20143;-86
2024/02/11 15:26:04;;;;;;;18.13;13.00;;;;;;;;;;5908095;28;20115;-86
2024/02/11 15:28:54;;;;;;;13.10;7.97;;;;;;;;;;5911869;28;20495;-86
2024/02/11 15:31:45;;;;;;;10.15;8.80;;;;;;;;;;5893380;28;20040;-86
2024/02/11 15:34:39;;;;;;;5.85;4.57;;;;;;;;;;5911552;28;20129;-86
2024/02/11 15:37:32;;;;;;;20.95;14.50;;;;;;;;;;5910015;28;20125;-85
2024/02/11 15:40:23;;;;;;;16.27;12.32;;;;;;;;;;5911429;28;20040;-86
2024/02/11 15:43:14;;;;;;;6.57;5.97;;;;;;;;;;5926352;28;20063;-86
2024/02/11 15:46:05;;;;;;;4.18;2.92;;;;;;;;;;5911539;28;20063;-85
2024/02/11 15:48:56;;;;;;;4.10;2.78;;;;;;;;;;5911343;28;20071;-86
2024/02/11 15:51:47;;;;;;;7.13;5.10;;;;;;;;;;5911103;28;20097;-85
2024/02/11 15:54:44;;;;;;;5.13;4.60;;;;;;;;;;5911562;28;20040;-85
2024/02/11 15:57:36;;;;;;;4.63;3.05;;;;;;;;;;5910008;28;20147;-85
2024/02/11 16:00:28;;;;;;;4.70;3.22;;;;;;;;;;5911033;28;20040;-85
2024/02/11 16:03:19;;;;;;;11.73;9.05;;;;;;;;;;5910610;28;20106;-86
2024/02/11 16:06:11;;;;;;;16.85;12.38;;;;;;;;;;5909947;28;20110;-86
2024/02/11 16:09:04;;;;;;;6.40;5.22;;;;;;;;;;5909662;28;20048;-85
2024/02/11 16:11:55;;;;;;;8.82;5.45;;;;;;;;;;5911120;28;20059;-86
2024/02/11 16:14:46;;;;;;;7.82;4.80;;;;;;;;;;5910777;28;20045;-85
2024/02/11 16:17:37;;;;;;;13.02;6.05;;;;;;;;;;5909599;28;20174;-86
2024/02/11 16:20:30;;;;;;;10.52;6.25;;;;;;;;;;5910762;28;20119;-86
2024/02/11 16:23:21;;;;;;;16.63;6.85;;;;;;;;;;5909123;28;20040;-86
2024/02/11 16:26:16;;;;;;;6.50;4.93;;;;;;;;;;5892771;28;20513;-86
2024/02/11 16:29:07;;;;;;;32.78;22.27;;;;;;;;;;5909113;28;20609;-86
2024/02/11 16:32:00;;;;;;;15.10;13.20;;;;;;;;;;5909899;28;20138;-86
2024/02/11 16:34:51;;;;;;;52.53;35.50;;;;;;;;;;5910570;28;20044;-86
2024/02/11 16:37:42;;;;;;;23.23;16.63;;;;;;;;;;5910513;28;20056;-86
2024/02/11 16:40:33;;;;;;;37.38;22.88;;;;;;;;;;5909541;28;20070;-86
2024/02/11 16:43:23;;;;;;;43.30;22.58;;;;;;;;;;5909641;28;20127;-86
2024/02/11 16:46:14;;;;;;;58.40;38.58;;;;;;;;;;5908637;28;20046;-86
2024/02/11 16:49:05;;;;;;;41.47;27.00;;;;;;;;;;5907331;28;20063;-86
2024/02/11 16:51:58;;;;;;;25.52;14.90;;;;;;;;;;5908425;28;20522;-86
2024/02/11 16:54:48;;;;;;;15.70;11.88;;;;;;;;;;5909892;28;20525;-87
2024/02/11 16:57:39;;;;;;;8.98;6.53;;;;;;;;;;5908717;28;20078;-86
2024/02/11 17:00:31;;;;;;;12.07;9.05;;;;;;;;;;5910206;28;20055;-86